Anna Maria, Florida
Current Conditions -  °F | °C
As of 8:53 AM on Thursday 23 Oct 2014 (Local Time) from KSRQ Reporting Station
Clear Clear  
Wind Chill: 68°   Ceiling: Unl
Heat Index: 68°   Visibility: 10mi
Dew Point: 58°   Wind: 12mph
Humidity: 70%   Direction: 60°ENE
Pressure: 29.96"   Gusts: NA
Location:  27.53°N, 82.73°W
Report Text: KSRQ 231253Z AUTO 06010KT 10SM CLR 20/14 A2996 RMK AO2 SLP146 T02000144
Loading
Personal Weather Stations






























Interactive Weather Map New forecast layout! Learn more

10-Day Weather Forecast

Advertisements
Track Severe Weather on mobile